CheckWX is a tool to help pilots better visualize weather data.  It is not intended as a substitute for an official pre-flight weather briefing.

07:30:39 UTC

EGPK TAF
Glasgow Prestwick Airport
Glasgow, United Kingdom
TAF EGPK 210458Z 2106/2206 VRB03KT 9999 FEW030 BECMG 2121/2124 23010KT

Oct-21@
06:00 UTC

Oct-21 @ 06:00 UTC

Oct-21@
21:00 UTC

Oct-21 @ 21:00 UTC

TAF EGPK 210458Z 2106/2206 VRB03KT 9999 FEW030
Wind
  • Variable at 3 KTS
Cloud Levels
  • Few at 3,000' AGL

Oct-21@
21:00 UTC

Oct-21 @ 21:00 UTC

Oct-22@
06:00 UTC

Oct-22 @ 06:00 UTC

BECMG 2121/2124 23010KT

Becoming

Becoming Conditions expected by Tue, Oct 22, 2019 @ 00:00 UTC

Wind
  • 230° at 10 KTS
Cloud Levels
  • Few at 3,000' AGL